Time;durP1;ratioP1;P1;durP2;ratioP2;P2;SDS_P1;SDS_P2;PMS_P1;PMS_P2;Temp;Humidity;BMP_temperature;BMP_pressure;BME280_temperature;BME280_humidity;BME280_pressure;Samples;Min_cycle;Max_cycle;Signal;HPM_P1;HPM_P2
2021/12/18 00:01:28;;;;;;;21.83;15.07;;;;;;;1.63;83.20;99709.31;4942875;28;20039;-70
2021/12/18 00:03:54;;;;;;;22.95;15.77;;;;;;;1.47;83.50;99661.22;4949320;28;20046;-68
2021/12/18 00:06:20;;;;;;;25.40;15.93;;;;;;;1.82;83.57;99699.97;4974639;28;20037;-69
2021/12/18 00:08:45;;;;;;;21.08;15.30;;;;;;;1.65;82.95;99713.47;4959146;28;20031;-68
2021/12/18 00:11:11;;;;;;;25.38;15.45;;;;;;;1.50;83.58;99712.34;4955875;28;20031;-68
2021/12/18 00:13:37;;;;;;;24.23;15.40;;;;;;;1.66;83.35;99719.44;4972555;28;20043;-68
2021/12/18 00:16:03;;;;;;;24.25;15.98;;;;;;;1.71;83.29;99712.38;4958085;28;20057;-69
2021/12/18 00:18:30;;;;;;;22.48;15.20;;;;;;;1.77;82.64;99713.88;4957992;28;20164;-68
2021/12/18 00:20:57;;;;;;;22.13;15.25;;;;;;;1.88;83.09;99729.66;4973754;28;20026;-68
2021/12/18 00:23:23;;;;;;;20.02;14.77;;;;;;;1.85;83.07;99720.38;4956996;28;20034;-68
2021/12/18 00:25:48;;;;;;;24.95;15.50;;;;;;;1.90;82.48;99726.16;4959262;28;20042;-68
2021/12/18 00:28:13;;;;;;;21.08;14.27;;;;;;;1.91;82.36;99722.66;4956948;28;20042;-68
2021/12/18 00:30:39;;;;;;;22.08;15.23;;;;;;;1.87;83.26;99731.41;4958844;28;20035;-68
2021/12/18 00:33:05;;;;;;;19.23;13.60;;;;;;;1.92;82.51;99736.34;4958103;28;20039;-70
2021/12/18 00:35:35;;;;;;;21.77;13.60;;;;;;;1.53;82.47;99676.34;4957232;28;20409;-68
2021/12/18 00:38:04;;;;;;;22.88;13.88;;;;;;;1.79;82.20;99732.59;4956691;28;20105;-69
2021/12/18 00:40:42;;;;;;;20.98;14.68;;;;;;;1.74;82.28;99735.34;4952710;28;20119;-70
2021/12/18 00:43:22;;;;;;;26.73;17.05;;;;;;;1.18;83.82;99726.41;4970353;28;20107;-67
2021/12/18 00:45:49;;;;;;;29.13;18.05;;;;;;;1.02;85.83;99736.38;4956616;28;20055;-69
2021/12/18 00:48:14;;;;;;;26.02;17.30;;;;;;;0.94;85.93;99697.44;4960654;28;20039;-68
2021/12/18 00:50:40;;;;;;;29.55;17.50;;;;;;;1.41;86.56;99740.91;4953492;28;20031;-69
2021/12/18 00:53:05;;;;;;;27.45;17.23;;;;;;;1.47;86.58;99742.41;4957147;28;20049;-68
2021/12/18 00:55:30;;;;;;;33.38;18.20;;;;;;;1.52;86.08;99733.63;4934424;28;20105;-69
2021/12/18 00:57:56;;;;;;;26.38;16.20;;;;;;;1.56;85.06;99738.66;4948488;28;20058;-70
2021/12/18 01:00:24;;;;;;;25.40;16.58;;;;;;;1.46;84.92;99715.94;4952608;28;20037;-69
2021/12/18 01:02:57;;;;;;;26.17;15.82;;;;;;;1.72;85.06;99745.66;4970686;28;20035;-69
2021/12/18 01:05:23;;;;;;;22.88;15.50;;;;;;;1.80;84.68;99747.94;4971984;28;20038;-69
2021/12/18 01:07:49;;;;;;;24.92;15.32;;;;;;;1.45;84.19;99691.19;4955334;28;20062;-70
2021/12/18 01:13:01;;;;;;;26.77;15.60;;;;;;;1.72;84.31;99748.25;4957091;28;20089;-69
2021/12/18 01:23:26;;;;;;;26.35;16.27;;;;;;;1.61;84.16;99758.09;4941719;28;20042;-69
2021/12/18 01:25:53;;;;;;;28.63;19.65;;;;;;;1.59;83.70;99777.81;4962267;28;20034;-69
2021/12/18 01:28:19;;;;;;;28.30;19.55;;;;;;;1.35;83.88;99751.38;4959888;28;20647;-69
2021/12/18 01:30:44;;;;;;;28.42;18.33;;;;;;;1.51;84.08;99792.66;4944427;28;20061;-69
2021/12/18 01:33:10;;;;;;;24.48;15.88;;;;;;;1.39;83.40;99782.84;4953078;28;20041;-69
2021/12/18 01:35:35;;;;;;;20.23;14.02;;;;;;;1.07;83.54;99736.22;4957422;28;20027;-70
2021/12/18 01:38:01;;;;;;;18.08;13.30;;;;;;;1.41;83.83;99778.53;4957853;28;20031;-69
2021/12/18 01:40:27;;;;;;;18.65;13.40;;;;;;;1.40;83.95;99785.38;4971381;28;20031;-69
2021/12/18 01:53:03;;;;;;;17.38;12.30;;;;;;;1.24;83.25;99794.53;4960399;28;20172;-69
2021/12/18 01:55:34;;;;;;;19.48;12.32;;;;;;;1.25;83.26;99806.44;4954091;28;20074;-71
2021/12/18 01:58:00;;;;;;;19.30;12.55;;;;;;;1.15;83.56;99799.09;4955503;28;20027;-69
2021/12/18 02:00:29;;;;;;;20.30;12.55;;;;;;;1.19;83.94;99802.41;4945211;28;20379;-69
2021/12/18 02:02:54;;;;;;;17.90;12.65;;;;;;;1.23;84.01;99805.69;4954367;28;20031;-71
2021/12/18 02:05:20;;;;;;;19.42;11.55;;;;;;;1.27;83.61;99813.19;4942836;28;20042;-69
2021/12/18 02:07:46;;;;;;;17.67;11.95;;;;;;;1.13;83.47;99810.28;4951836;28;20030;-69
2021/12/18 02:10:21;;;;;;;17.83;11.75;;;;;;;1.08;83.90;99813.03;4941323;28;20477;-69
2021/12/18 02:21:07;;;;;;;20.90;13.55;;;;;;;1.02;84.57;99827.75;4960876;28;20109;-69
2021/12/18 02:23:34;;;;;;;19.08;12.30;;;;;;;1.09;83.82;99821.53;4974711;28;20034;-68
2021/12/18 02:25:59;;;;;;;20.35;12.23;;;;;;;1.09;84.14;99814.69;4942645;28;20675;-69
2021/12/18 02:28:26;;;;;;;19.80;11.77;;;;;;;0.86;83.99;99782.22;4957183;28;20050;-70
2021/12/18 02:30:53;;;;;;;18.15;11.40;;;;;;;1.08;84.69;99825.84;4960807;28;20046;-70
2021/12/18 02:33:19;;;;;;;17.48;11.50;;;;;;;0.99;84.64;99808.22;4956038;28;20094;-68
2021/12/18 02:35:48;;;;;;;17.25;11.50;;;;;;;0.80;84.24;99773.91;4949788;28;20034;-69
2021/12/18 02:38:20;;;;;;;17.45;12.32;;;;;;;1.02;84.55;99815.78;4960782;28;20481;-70
2021/12/18 02:43:21;;;;;;;15.95;11.77;;;;;;;1.03;85.31;99808.97;4973440;28;20082;-69
2021/12/18 02:45:47;;;;;;;17.17;11.48;;;;;;;0.73;88.25;99750.25;4940901;28;20125;-69
2021/12/18 02:48:12;;;;;;;23.75;12.77;;;;;;;1.22;88.46;99827.88;4958926;28;20121;-69
2021/12/18 02:50:39;;;;;;;18.23;12.82;;;;;;;1.28;86.70;99812.31;4959594;28;20542;-68
2021/12/18 02:53:05;;;;;;;18.70;12.20;;;;;;;1.36;87.75;99803.50;4959806;28;20019;-70
2021/12/18 02:55:31;;;;;;;21.02;11.85;;;;;;;1.47;88.44;99814.19;4969859;28;21959;-70
2021/12/18 02:57:56;;;;;;;19.63;11.82;;;;;;;1.15;86.77;99762.41;4958717;28;20521;-69
2021/12/18 03:00:24;;;;;;;18.55;11.93;;;;;;;1.43;85.86;99812.63;4973801;28;20049;-69
2021/12/18 03:02:49;;;;;;;18.98;11.55;;;;;;;1.10;85.77;99748.94;4956523;28;20074;-68
2021/12/18 03:05:22;;;;;;;17.15;11.15;;;;;;;1.42;85.51;99798.13;4960656;28;20035;-71
2021/12/18 03:07:52;;;;;;;18.27;11.15;;;;;;;1.44;85.28;99793.78;4971704;28;20474;-68
2021/12/18 03:24:22;;;;;;;18.60;11.32;;;;;;;1.47;87.42;99809.06;4972091;28;20027;-68
2021/12/18 03:26:48;;;;;;;19.83;11.73;;;;;;;1.42;86.95;99810.94;4972835;28;20589;-69
2021/12/18 03:29:13;;;;;;;22.83;12.82;;;;;;;1.42;88.02;99822.03;4959903;28;21101;-69
2021/12/18 03:31:39;;;;;;;20.90;11.57;;;;;;;1.17;88.75;99759.75;4975001;28;20420;-69
2021/12/18 03:34:04;;;;;;;19.55;11.65;;;;;;;1.50;88.46;99817.47;4954895;28;20051;-69
2021/12/18 03:36:29;;;;;;;19.90;11.20;;;;;;;1.60;90.03;99820.50;4935991;28;20042;-69
2021/12/18 03:38:55;;;;;;;17.58;10.68;;;;;;;1.54;89.12;99810.50;4959346;28;20114;-69
2021/12/18 03:41:20;;;;;;;17.33;10.90;;;;;;;1.37;87.93;99770.13;4941643;28;20039;-70
2021/12/18 03:43:46;;;;;;;18.83;11.25;;;;;;;1.61;87.16;99809.38;4959033;28;20532;-70
2021/12/18 03:46:11;;;;;;;18.70;11.45;;;;;;;1.72;87.75;99817.47;4954709;28;20491;-69
2021/12/18 03:48:36;;;;;;;18.83;11.27;;;;;;;1.65;87.17;99817.78;4957168;28;20050;-70
2021/12/18 03:51:02;;;;;;;20.13;12.63;;;;;;;1.51;87.08;99816.53;4964053;28;20145;-70
2021/12/18 03:53:28;;;;;;;17.08;10.80;;;;;;;1.48;86.68;99824.38;4949259;28;20031;-69
2021/12/18 03:55:53;;;;;;;19.60;11.20;;;;;;;1.32;87.42;99820.72;4975296;28;20434;-69
2021/12/18 03:58:18;;;;;;;16.80;11.38;;;;;;;1.14;88.17;99786.34;4948761;28;20031;-69
2021/12/18 04:00:44;;;;;;;18.88;11.75;;;;;;;1.39;87.49;99824.72;4960493;28;20061;-69
2021/12/18 04:03:09;;;;;;;19.00;11.77;;;;;;;1.44;88.83;99827.09;4959918;28;20035;-70
2021/12/18 04:05:35;;;;;;;17.33;10.95;;;;;;;1.49;89.04;99827.75;4960038;28;20031;-69
2021/12/18 04:08:08;;;;;;;16.10;10.20;;;;;;;1.54;87.94;99829.25;4962242;28;20093;-69
2021/12/18 04:10:36;;;;;;;16.55;10.32;;;;;;;1.44;86.98;99827.09;4974821;28;20039;-69
2021/12/18 04:13:02;;;;;;;19.52;11.32;;;;;;;1.39;87.64;99837.53;4955332;28;20030;-69
2021/12/18 04:15:28;;;;;;;18.80;11.40;;;;;;;1.34;87.14;99827.44;4937969;28;20035;-70
2021/12/18 04:17:53;;;;;;;19.45;10.60;;;;;;;1.44;86.22;99830.50;4942813;28;20031;-69
2021/12/18 04:20:18;;;;;;;15.93;10.43;;;;;;;1.34;86.59;99832.56;4972781;28;20030;-69
2021/12/18 04:22:44;;;;;;;15.15;9.98;;;;;;;1.45;87.39;99846.72;4954228;28;20038;-70
2021/12/18 04:25:09;;;;;;;17.77;10.20;;;;;;;1.47;86.51;99858.56;4957404;28;20031;-70
2021/12/18 04:27:34;;;;;;;16.13;9.90;;;;;;;1.18;86.39;99821.19;4956884;28;20142;-69
2021/12/18 04:30:00;;;;;;;15.10;9.15;;;;;;;1.39;86.66;99857.19;4960913;28;20045;-68
2021/12/18 04:32:25;;;;;;;15.05;9.65;;;;;;;1.20;86.91;99857.84;4959072;28;20033;-71
2021/12/18 04:34:51;;;;;;;14.02;9.73;;;;;;;1.15;87.95;99867.44;4959680;28;20036;-71
2021/12/18 04:37:16;;;;;;;17.25;9.73;;;;;;;1.11;87.76;99871.84;4959686;28;20757;-71
2021/12/18 04:39:42;;;;;;;15.18;9.38;;;;;;;1.28;87.85;99870.41;4957727;28;20031;-69
2021/12/18 04:42:07;;;;;;;14.65;9.93;;;;;;;1.31;87.26;99877.97;4959206;28;20089;-69
2021/12/18 04:44:33;;;;;;;16.20;9.02;;;;;;;0.90;87.81;99821.38;4938834;28;20636;-70
2021/12/18 04:46:58;;;;;;;15.30;9.50;;;;;;;1.23;87.13;99880.81;4961818;28;20037;-69
2021/12/18 04:49:23;;;;;;;13.23;9.10;;;;;;;1.22;86.72;99871.44;4946199;28;20117;-68
2021/12/18 04:51:49;;;;;;;14.88;9.50;;;;;;;1.22;86.95;99881.69;4965404;28;20038;-70
2021/12/18 04:54:14;;;;;;;14.73;9.50;;;;;;;1.30;87.67;99889.13;4961436;28;20039;-69
2021/12/18 04:56:40;;;;;;;16.08;10.00;;;;;;;0.95;87.47;99832.28;4974055;28;20035;-71
2021/12/18 04:59:06;;;;;;;15.27;8.88;;;;;;;1.00;86.67;99832.94;4957098;28;20097;-71
2021/12/18 05:01:36;;;;;;;13.65;8.82;;;;;;;1.21;87.41;99874.09;4959502;28;20114;-69
2021/12/18 05:04:04;;;;;;;13.90;8.90;;;;;;;1.17;87.69;99865.66;4959162;28;20139;-69
2021/12/18 05:06:31;;;;;;;14.77;9.45;;;;;;;1.00;87.72;99878.22;4957374;28;20113;-68
2021/12/18 05:08:56;;;;;;;17.00;10.13;;;;;;;0.80;89.51;99820.00;4959292;28;20118;-70
2021/12/18 05:11:22;;;;;;;14.73;9.63;;;;;;;1.10;93.21;99843.72;4941786;28;20036;-71
2021/12/18 05:13:47;;;;;;;16.65;9.40;;;;;;;1.31;91.37;99894.19;4959807;28;20093;-69
2021/12/18 05:16:12;;;;;;;15.40;9.18;;;;;;;1.06;91.88;99850.69;4961107;28;20122;-69
2021/12/18 05:18:38;;;;;;;13.10;9.25;;;;;;;1.53;90.42;99913.91;4955385;28;20035;-70
2021/12/18 05:21:04;;;;;;;13.43;8.57;;;;;;;1.51;89.16;99908.00;4956690;28;20037;-69
2021/12/18 05:23:30;;;;;;;14.77;8.80;;;;;;;1.56;89.69;99926.63;4957251;28;20089;-69
2021/12/18 05:25:55;;;;;;;14.77;8.60;;;;;;;1.23;89.26;99862.88;4974878;28;20490;-71
2021/12/18 05:28:21;;;;;;;13.32;8.30;;;;;;;1.58;88.59;99918.88;4961660;28;20031;-70
2021/12/18 05:30:46;;;;;;;13.90;8.93;;;;;;;1.61;87.46;99924.75;4954291;28;20065;-71
2021/12/18 05:33:12;;;;;;;13.60;8.63;;;;;;;1.59;87.94;99926.53;4959178;28;20426;-69
2021/12/18 05:35:39;;;;;;;13.80;9.15;;;;;;;1.59;89.39;99933.38;4961669;28;20039;-70
2021/12/18 05:38:04;;;;;;;14.63;9.27;;;;;;;1.60;90.55;99935.88;4976962;28;20454;-69
2021/12/18 05:40:31;;;;;;;16.77;8.90;;;;;;;1.54;90.26;99934.38;4963160;28;20039;-70
2021/12/18 05:42:57;;;;;;;13.30;8.93;;;;;;;1.64;89.61;99945.16;4954808;28;20023;-70
2021/12/18 05:45:23;;;;;;;11.98;8.25;;;;;;;1.68;88.53;99951.84;4956001;28;20082;-68
2021/12/18 05:47:48;;;;;;;13.73;8.68;;;;;;;1.59;88.72;99941.91;4963586;28;20027;-69
2021/12/18 05:50:17;;;;;;;13.82;8.93;;;;;;;1.54;88.62;99947.19;4958894;28;20466;-69
2021/12/18 05:52:45;;;;;;;14.03;9.03;;;;;;;1.54;88.98;99948.94;4975711;28;20045;-69
2021/12/18 05:55:10;;;;;;;15.45;8.90;;;;;;;1.17;89.24;99898.97;4962759;28;20019;-69
2021/12/18 05:57:36;;;;;;;17.00;9.18;;;;;;;1.58;89.35;99960.72;4974693;28;20607;-69
2021/12/18 06:00:05;;;;;;;15.52;9.70;;;;;;;1.45;89.02;99946.69;4943504;28;20097;-69
2021/12/18 06:02:31;;;;;;;17.20;9.43;;;;;;;1.40;89.40;99951.13;4972515;28;20367;-70
2021/12/18 06:04:56;;;;;;;14.70;9.15;;;;;;;1.54;89.66;99961.75;4958908;28;20038;-69
2021/12/18 06:07:30;;;;;;;14.45;8.32;;;;;;;1.57;88.70;99977.03;4968369;28;20023;-69
2021/12/18 06:09:56;;;;;;;12.65;8.30;;;;;;;1.52;88.46;99968.66;4960057;28;20471;-69
2021/12/18 06:12:22;;;;;;;12.63;8.52;;;;;;;1.19;88.39;99921.97;4958500;28;20991;-69
2021/12/18 06:14:47;;;;;;;12.65;8.43;;;;;;;1.55;88.38;99989.03;4957281;28;20113;-69
2021/12/18 06:17:13;;;;;;;15.85;8.93;;;;;;;1.54;87.71;99984.81;4974123;28;20046;-68
2021/12/18 06:19:38;;;;;;;12.50;8.07;;;;;;;1.19;88.10;99933.06;4949927;28;20034;-69
2021/12/18 06:22:03;;;;;;;14.20;8.15;;;;;;;1.53;87.18;99994.25;4973720;28;20478;-69
2021/12/18 06:24:29;;;;;;;12.93;8.32;;;;;;;1.43;87.68;99987.75;4950320;28;20034;-69
2021/12/18 06:26:55;;;;;;;15.50;9.35;;;;;;;1.28;88.16;99976.31;4949667;28;20087;-70
2021/12/18 06:29:21;;;;;;;16.17;9.68;;;;;;;1.39;87.91;99995.59;4974590;28;20230;-69
2021/12/18 06:31:46;;;;;;;13.18;8.98;;;;;;;1.28;87.76;99996.81;4953550;28;20472;-68
2021/12/18 06:34:12;;;;;;;13.68;9.13;;;;;;;1.26;87.55;100005.41;4953809;28;20035;-70
2021/12/18 06:36:38;;;;;;;13.80;8.00;;;;;;;0.99;86.86;99956.78;4972656;28;20035;-70
2021/12/18 06:39:04;;;;;;;12.88;8.05;;;;;;;1.17;86.90;100016.84;4958469;28;20054;-69
2021/12/18 06:41:29;;;;;;;13.43;8.23;;;;;;;1.08;87.73;100022.25;4950525;28;20042;-69
2021/12/18 06:43:55;;;;;;;14.98;8.95;;;;;;;1.16;86.90;100025.41;4959732;28;20376;-68
2021/12/18 06:46:20;;;;;;;13.95;9.07;;;;;;;1.05;87.04;100020.63;4958032;28;20108;-69
2021/12/18 06:48:46;;;;;;;13.25;8.52;;;;;;;1.09;86.90;100022.19;4957451;28;20485;-71
2021/12/18 06:51:11;;;;;;;15.07;9.27;;;;;;;1.03;87.26;100009.59;4960382;28;20031;-69
2021/12/18 06:53:36;;;;;;;13.40;9.02;;;;;;;0.91;86.82;100000.59;4969528;28;20406;-69
2021/12/18 06:56:03;;;;;;;14.10;9.27;;;;;;;1.00;86.75;100029.34;4962906;28;20085;-70
2021/12/18 06:58:29;;;;;;;17.08;9.43;;;;;;;0.74;86.77;99980.63;4955214;28;20134;-70
2021/12/18 07:00:55;;;;;;;16.35;10.07;;;;;;;0.91;85.88;100015.97;4959703;28;20449;-69
2021/12/18 07:03:21;;;;;;;16.60;9.85;;;;;;;0.94;86.59;100022.69;4943523;28;20106;-70
2021/12/18 07:05:47;;;;;;;14.57;9.73;;;;;;;0.94;86.97;100033.78;4959235;28;20031;-69
2021/12/18 07:08:13;;;;;;;14.32;9.18;;;;;;;1.01;86.19;100047.22;4961883;28;20035;-70
2021/12/18 07:10:38;;;;;;;15.43;9.90;;;;;;;0.88;86.05;100051.06;4960723;28;20131;-70
2021/12/18 07:13:04;;;;;;;12.88;8.90;;;;;;;0.80;86.13;100050.47;4958229;28;20030;-70
2021/12/18 07:15:29;;;;;;;15.18;9.63;;;;;;;0.87;86.46;100065.59;4974649;28;20030;-69
2021/12/18 07:17:55;;;;;;;16.15;9.57;;;;;;;0.73;85.73;100060.91;4934710;28;20033;-69
2021/12/18 07:20:20;;;;;;;15.05;10.05;;;;;;;0.70;85.99;100080.66;4948796;28;20546;-70
2021/12/18 07:22:46;;;;;;;19.80;9.52;;;;;;;0.73;86.13;100088.22;4960926;28;20027;-69
2021/12/18 07:25:11;;;;;;;15.20;9.57;;;;;;;0.85;86.36;100087.00;4973015;28;20794;-69
2021/12/18 07:27:37;;;;;;;15.43;9.95;;;;;;;0.85;85.85;100097.25;4976559;28;20082;-68
2021/12/18 07:30:03;;;;;;;14.70;9.57;;;;;;;0.81;85.52;100095.69;4959725;28;20494;-69
2021/12/18 07:32:29;;;;;;;13.55;9.23;;;;;;;0.77;85.61;100090.66;4942435;28;20027;-68
2021/12/18 07:34:56;;;;;;;15.88;9.57;;;;;;;0.72;85.51;100092.50;4953251;28;20041;-69
2021/12/18 07:37:24;;;;;;;14.85;9.25;;;;;;;0.81;84.74;100114.44;4957064;28;20058;-69
2021/12/18 07:39:50;;;;;;;16.67;9.85;;;;;;;0.79;85.20;100112.81;4974889;28;20091;-69
2021/12/18 07:42:15;;;;;;;15.35;9.00;;;;;;;0.63;85.64;100107.31;4959048;28;20768;-71
2021/12/18 07:44:42;;;;;;;16.95;10.02;;;;;;;0.55;86.32;100104.97;4960537;28;20039;-71
2021/12/18 07:47:07;;;;;;;14.38;9.23;;;;;;;0.56;86.62;100122.81;4957175;28;20026;-69
2021/12/18 07:49:33;;;;;;;15.77;10.15;;;;;;;0.75;86.70;100137.69;4960449;28;20048;-69
2021/12/18 07:52:02;;;;;;;16.00;9.52;;;;;;;0.83;85.94;100138.28;4948731;28;20510;-70
2021/12/18 07:54:28;;;;;;;15.27;10.63;;;;;;;0.76;86.33;100145.28;4954957;28;20666;-71
2021/12/18 07:56:53;;;;;;;17.42;10.05;;;;;;;0.82;86.63;100133.19;4960144;28;20027;-69
2021/12/18 07:59:18;;;;;;;16.05;10.65;;;;;;;0.54;86.23;100075.13;4939778;28;20054;-70
2021/12/18 08:01:44;;;;;;;15.90;10.50;;;;;;;0.92;85.85;100129.47;4944025;28;20030;-69
2021/12/18 08:04:09;;;;;;;15.57;10.95;;;;;;;0.80;86.32;100134.97;4970280;28;20476;-71
2021/12/18 08:06:35;;;;;;;17.23;10.65;;;;;;;0.49;87.03;100080.41;4956920;28;20030;-71
2021/12/18 08:09:00;;;;;;;20.40;11.43;;;;;;;0.57;86.77;100082.72;4972060;28;20039;-69
2021/12/18 08:11:25;;;;;;;16.92;11.00;;;;;;;0.79;87.19;100134.13;4971477;28;20114;-70
2021/12/18 08:13:51;;;;;;;16.73;11.07;;;;;;;0.49;87.05;100069.31;4957774;28;20038;-69
2021/12/18 08:16:16;;;;;;;19.50;11.57;;;;;;;0.82;87.35;100134.06;4955381;28;20160;-71
2021/12/18 08:18:42;;;;;;;15.60;10.82;;;;;;;0.94;87.71;100146.47;4957103;28;20144;-69
2021/12/18 08:21:07;;;;;;;17.30;11.75;;;;;;;0.90;86.90;100134.66;4934892;28;20066;-69
2021/12/18 08:23:33;;;;;;;17.05;11.02;;;;;;;1.02;85.72;100147.97;4956733;28;20039;-69
2021/12/18 08:25:58;;;;;;;18.42;11.57;;;;;;;0.71;86.21;100087.41;4950565;28;20105;-71
2021/12/18 08:28:25;;;;;;;17.75;11.73;;;;;;;1.03;86.95;100147.91;4930002;28;20033;-70
2021/12/18 08:30:50;;;;;;;16.38;11.07;;;;;;;0.96;86.36;100138.75;4973088;28;20118;-69
2021/12/18 08:33:16;;;;;;;18.15;11.07;;;;;;;0.92;87.29;100158.50;4952350;28;20102;-71
2021/12/18 08:35:41;;;;;;;16.88;11.02;;;;;;;0.92;88.38;100176.41;4971203;28;20042;-70
2021/12/18 08:38:07;;;;;;;16.58;10.77;;;;;;;0.89;87.76;100165.41;4970463;28;20046;-69
2021/12/18 08:40:33;;;;;;;17.23;10.25;;;;;;;0.90;89.83;100149.19;4953126;28;20358;-71
2021/12/18 08:42:59;;;;;;;16.38;10.75;;;;;;;0.98;88.88;100160.03;4983848;28;20134;-70
2021/12/18 08:45:25;;;;;;;17.17;10.05;;;;;;;1.10;89.50;100169.06;4973084;28;20531;-68
2021/12/18 08:47:50;;;;;;;15.52;10.68;;;;;;;1.13;88.98;100166.41;4962746;28;20081;-69
2021/12/18 08:50:17;;;;;;;15.45;10.38;;;;;;;1.27;88.61;100181.38;4973545;28;20038;-69
2021/12/18 08:52:44;;;;;;;17.02;10.48;;;;;;;1.00;88.46;100121.56;4948495;28;20031;-69
2021/12/18 08:55:10;;;;;;;15.68;10.50;;;;;;;1.20;88.82;100152.50;4945664;28;20419;-69
2021/12/18 08:57:35;;;;;;;16.25;10.27;;;;;;;1.20;88.89;100167.91;4971335;28;20561;-69
2021/12/18 09:00:01;;;;;;;14.43;10.05;;;;;;;1.30;89.16;100168.47;4947571;28;20039;-70
2021/12/18 09:02:26;;;;;;;14.80;10.27;;;;;;;1.23;89.25;100180.63;4944194;28;20749;-69
2021/12/18 09:04:52;;;;;;;17.33;9.85;;;;;;;1.25;89.90;100172.88;4939395;28;20038;-70
2021/12/18 09:07:17;;;;;;;15.80;10.25;;;;;;;1.37;89.29;100174.22;4953316;28;20027;-70
2021/12/18 09:09:43;;;;;;;14.35;9.93;;;;;;;1.52;90.19;100195.09;4949562;28;20605;-69
2021/12/18 09:12:11;;;;;;;15.80;9.43;;;;;;;1.59;90.76;100189.75;4959819;28;20030;-70
2021/12/18 09:14:38;;;;;;;14.98;10.52;;;;;;;1.09;91.48;100101.59;4970554;28;20036;-69
2021/12/18 09:17:04;;;;;;;16.13;9.93;;;;;;;1.36;91.47;100154.63;4951602;28;20057;-70
2021/12/18 09:19:29;;;;;;;15.57;11.13;;;;;;;1.73;91.64;100208.97;4966673;28;20031;-69
2021/12/18 09:21:55;;;;;;;17.08;10.00;;;;;;;1.81;91.77;100198.44;4930987;28;20390;-70
2021/12/18 09:24:21;;;;;;;14.48;10.15;;;;;;;1.89;90.94;100206.72;4940520;28;20054;-71
2021/12/18 09:26:47;;;;;;;17.40;10.05;;;;;;;1.99;90.34;100196.13;4952988;28;20647;-69
2021/12/18 09:29:13;;;;;;;15.75;9.68;;;;;;;1.77;89.32;100143.03;4951389;28;20067;-70
2021/12/18 09:31:38;;;;;;;14.70;9.77;;;;;;;2.26;88.71;100214.91;4954171;28;20069;-70
2021/12/18 09:34:04;;;;;;;13.50;9.80;;;;;;;2.23;88.59;100210.72;4965606;28;20972;-69
2021/12/18 09:36:29;;;;;;;17.80;9.98;;;;;;;2.33;88.96;100211.22;4949762;28;20027;-71
2021/12/18 09:38:55;;;;;;;19.23;10.48;;;;;;;2.34;88.02;100214.63;4974400;28;20715;-70
2021/12/18 09:41:21;;;;;;;14.43;10.00;;;;;;;2.33;89.29;100218.09;4954398;28;20046;-69
2021/12/18 09:43:47;;;;;;;15.75;10.98;;;;;;;2.41;90.42;100208.41;4957038;28;20277;-70
2021/12/18 09:46:14;;;;;;;17.30;11.27;;;;;;;2.72;90.20;100217.56;4959084;28;20096;-71
2021/12/18 09:48:41;;;;;;;15.90;11.02;;;;;;;2.63;89.28;100211.06;4964768;28;20035;-70
2021/12/18 09:51:12;;;;;;;16.13;10.52;;;;;;;2.85;88.92;100224.78;4945422;28;20085;-69
2021/12/18 09:53:39;;;;;;;15.40;10.57;;;;;;;3.19;86.73;100220.13;4944722;28;20039;-69
2021/12/18 09:56:06;;;;;;;16.90;10.77;;;;;;;3.30;86.88;100222.28;4955875;28;20464;-70
2021/12/18 09:58:31;;;;;;;16.60;11.02;;;;;;;2.96;86.82;100169.59;4974643;28;20038;-69
2021/12/18 10:00:57;;;;;;;16.80;11.45;;;;;;;3.36;86.20;100214.31;4964233;28;20027;-70
2021/12/18 10:03:44;;;;;;;15.77;11.52;;;;;;;3.23;85.41;100198.53;4960323;28;20351;-69
2021/12/18 10:06:41;;;;;;;14.75;9.93;;;;;;;3.33;84.79;100211.88;4952149;28;20529;-70
2021/12/18 10:09:08;;;;;;;15.27;10.20;;;;;;;3.36;83.46;100216.88;4955072;28;20102;-69
2021/12/18 10:11:54;;;;;;;14.65;9.90;;;;;;;3.16;83.32;100167.09;4960636;28;20081;-68
2021/12/18 10:14:31;;;;;;;15.10;10.15;;;;;;;3.73;81.29;100200.84;4954371;28;20089;-69
2021/12/18 10:16:57;;;;;;;14.40;9.95;;;;;;;3.99;80.53;100194.63;4957237;28;20118;-69
2021/12/18 10:19:25;;;;;;;15.25;9.70;;;;;;;3.92;80.21;100198.34;4954032;28;20027;-71
2021/12/18 10:22:00;;;;;;;15.02;9.93;;;;;;;3.83;80.66;100185.84;4972358;28;20057;-69
2021/12/18 10:24:27;;;;;;;14.50;9.40;;;;;;;3.78;79.90;100178.34;4953719;28;20118;-72
2021/12/18 10:26:53;;;;;;;13.13;9.50;;;;;;;3.90;80.44;100191.59;4963149;28;20027;-69
2021/12/18 10:29:36;;;;;;;13.13;8.70;;;;;;;3.78;78.38;100142.31;4956023;28;20042;-70
2021/12/18 10:32:09;;;;;;;14.77;8.98;;;;;;;4.12;79.08;100176.09;4966758;28;20043;-70
2021/12/18 10:34:35;;;;;;;13.82;8.70;;;;;;;4.09;77.85;100182.22;4970274;28;20067;-70
2021/12/18 10:37:27;;;;;;;14.50;8.80;;;;;;;4.25;76.70;100182.38;4953804;28;20039;-70
2021/12/18 10:39:56;;;;;;;15.10;9.90;;;;;;;4.16;75.51;100139.88;4958992;28;20043;-71
2021/12/18 10:42:34;;;;;;;13.57;8.63;;;;;;;4.73;75.49;100180.31;4952474;28;20146;-70
2021/12/18 10:45:21;;;;;;;10.98;7.80;;;;;;;4.81;74.04;100181.63;4954518;28;20128;-71
2021/12/18 10:47:54;;;;;;;12.52;7.95;;;;;;;4.75;74.68;100171.59;4955718;28;20024;-70
2021/12/18 10:50:27;;;;;;;14.30;8.73;;;;;;;4.87;73.82;100175.34;4950869;28;20042;-70
2021/12/18 10:53:06;;;;;;;12.38;8.35;;;;;;;5.03;72.70;100178.06;4951783;28;20030;-71
2021/12/18 10:55:43;;;;;;;15.23;8.33;;;;;;;5.23;72.24;100174.53;4950508;28;20035;-70
2021/12/18 10:58:12;;;;;;;12.40;7.55;;;;;;;5.15;72.68;100154.28;4945999;28;20494;-70
2021/12/18 11:00:39;;;;;;;12.65;7.50;;;;;;;5.24;73.01;100163.34;4955420;28;20383;-71
2021/12/18 11:03:24;;;;;;;14.18;7.95;;;;;;;5.03;75.05;100116.19;4972395;28;20031;-70
2021/12/18 11:06:07;;;;;;;13.85;8.30;;;;;;;5.37;76.69;100167.00;4952078;28;20035;-69
2021/12/18 11:08:34;;;;;;;12.18;8.10;;;;;;;5.32;77.54;100160.38;4960597;28;20035;-70
2021/12/18 11:13:51;;;;;;;13.70;8.82;;;;;;;5.44;78.13;100158.94;4950718;28;20137;-69
2021/12/18 11:16:17;;;;;;;15.32;9.10;;;;;;;5.28;79.02;100151.13;4954515;28;20469;-71
2021/12/18 11:18:44;;;;;;;12.63;8.50;;;;;;;5.40;78.31;100145.34;4937595;28;20034;-69
2021/12/18 11:21:09;;;;;;;13.85;8.60;;;;;;;5.48;78.58;100148.41;4933585;28;20030;-69
2021/12/18 11:23:40;;;;;;;14.43;8.45;;;;;;;5.43;77.15;100134.91;4955947;28;20038;-69
2021/12/18 11:26:08;;;;;;;11.73;7.70;;;;;;;5.50;74.46;100138.84;4963956;28;20054;-71
2021/12/18 11:28:35;;;;;;;10.60;7.28;;;;;;;5.45;75.67;100117.59;4944206;28;20430;-69
2021/12/18 11:31:01;;;;;;;12.85;7.57;;;;;;;5.65;73.79;100134.69;4956039;28;20027;-68
2021/12/18 11:33:27;;;;;;;11.23;7.53;;;;;;;5.71;74.03;100126.66;4948168;28;20038;-70
2021/12/18 11:35:53;;;;;;;14.25;7.63;;;;;;;5.57;73.20;100073.13;4956728;28;20031;-69
2021/12/18 11:38:19;;;;;;;12.07;7.43;;;;;;;5.48;73.28;100065.84;4977307;28;20109;-70
2021/12/18 11:40:44;;;;;;;11.05;7.38;;;;;;;5.54;72.94;100067.28;4971107;28;20027;-72
2021/12/18 11:43:29;;;;;;;12.48;7.38;;;;;;;5.81;73.60;100108.94;4974892;28;20042;-69
2021/12/18 11:45:54;;;;;;;11.07;7.28;;;;;;;5.80;73.09;100107.25;4956211;28;20482;-71
2021/12/18 11:48:20;;;;;;;11.50;7.82;;;;;;;5.89;72.43;100101.63;4955746;28;20038;-70
2021/12/18 11:50:47;;;;;;;12.55;7.57;;;;;;;5.93;71.48;100097.16;4959257;28;20030;-70
2021/12/18 11:53:16;;;;;;;13.07;7.90;;;;;;;6.11;71.91;100106.56;4952195;28;20034;-71
2021/12/18 11:55:51;;;;;;;15.35;8.15;;;;;;;5.85;70.41;100051.06;4965428;28;20042;-71
2021/12/18 11:58:21;;;;;;;12.30;8.50;;;;;;;6.37;68.25;100104.38;4944746;28;20027;-71
2021/12/18 12:00:47;;;;;;;16.25;10.20;;;;;;;6.34;69.49;100095.03;4956142;28;20414;-71
2021/12/18 12:03:25;;;;;;;14.35;9.05;;;;;;;6.39;67.89;100097.38;4955857;28;20027;-71
2021/12/18 12:05:51;;;;;;;16.50;10.48;;;;;;;6.48;67.16;100094.31;4956560;28;20604;-70
2021/12/18 12:08:33;;;;;;;19.08;9.65;;;;;;;6.52;67.15;100085.47;4972772;28;20023;-72
2021/12/18 12:11:15;;;;;;;14.63;8.60;;;;;;;6.68;67.50;100087.19;4938349;28;20039;-70
2021/12/18 12:14:04;;;;;;;14.20;8.43;;;;;;;6.44;67.39;100029.94;4967062;28;20113;-70